Time;durP1;ratioP1;P1;durP2;ratioP2;P2;SDS_P1;SDS_P2;PMS_P1;PMS_P2;Temp;Humidity;BMP_temperature;BMP_pressure;BME280_temperature;BME280_humidity;BME280_pressure;Samples;Min_cycle;Max_cycle;Signal;HPM_P1;HPM_P2
2023/10/06 00:01:43;;;;;;;;;;;14.40;99.90;;;;;;5136554;27;19994;-47
2023/10/06 00:04:12;;;;;;;;;;;14.40;99.90;;;;;;5136614;27;19908;-47
2023/10/06 00:06:41;;;;;;;;;;;14.40;99.90;;;;;;5136360;27;19998;-48
2023/10/06 00:09:19;;;;;;;;;;;14.40;99.90;;;;;;5136365;27;19930;-47
2023/10/06 00:11:46;;;;;;;;;;;14.40;99.90;;;;;;5136262;27;19923;-47
2023/10/06 00:14:38;;;;;;;;;;;14.30;99.90;;;;;;5136385;27;19914;-48
2023/10/06 00:16:57;;;;;;;;;;;14.40;99.90;;;;;;5135972;27;19923;-48
2023/10/06 00:19:32;;;;;;;;;;;14.30;99.90;;;;;;5136165;27;19907;-47
2023/10/06 00:22:18;;;;;;;;;;;14.40;99.90;;;;;;5136130;27;19914;-45
2023/10/06 00:24:44;;;;;;;;;;;14.40;99.90;;;;;;5129215;27;19912;-49
2023/10/06 00:27:12;;;;;;;;;;;14.40;99.90;;;;;;5119894;27;19973;-47
2023/10/06 00:29:38;;;;;;;;;;;14.40;99.90;;;;;;5134415;27;19907;-47
2023/10/06 00:32:23;;;;;;;;;;;14.40;99.90;;;;;;5135004;27;19917;-48
2023/10/06 00:34:49;;;;;;;;;;;14.40;99.90;;;;;;5127258;27;19937;-46
2023/10/06 00:37:15;;;;;;;;;;;14.40;99.90;;;;;;5115227;28;19920;-50
2023/10/06 00:39:42;;;;;;;;;;;14.40;99.90;;;;;;5115194;28;20385;-47
2023/10/06 00:42:08;;;;;;;;;;;14.50;99.90;;;;;;5115302;28;19915;-46
2023/10/06 00:44:35;;;;;;;;;;;14.50;99.90;;;;;;5115125;28;20274;-47
2023/10/06 00:47:01;;;;;;;;;;;14.40;99.90;;;;;;5115118;28;19908;-48
2023/10/06 00:49:29;;;;;;;;;;;14.50;99.90;;;;;;5114979;28;19919;-48
2023/10/06 00:51:55;;;;;;;;;;;14.40;99.90;;;;;;5114998;28;19908;-48
2023/10/06 00:54:20;;;;;;;;;;;14.40;99.90;;;;;;5114930;28;20087;-47
2023/10/06 00:56:47;;;;;;;;;;;14.50;99.90;;;;;;5131195;27;20109;-47
2023/10/06 00:59:12;;;;;;;;;;;14.40;99.90;;;;;;5135531;27;19959;-45
2023/10/06 01:01:42;;;;;;;;;;;14.40;99.90;;;;;;5135324;27;19995;-46
2023/10/06 01:06:33;;;;;;;;;;;14.50;99.90;;;;;;5135308;27;19960;-46
2023/10/06 01:11:43;;;;;;;;;;;14.50;99.90;;;;;;5135169;27;19929;-48
2023/10/06 01:14:08;;;;;;;;;;;14.50;99.90;;;;;;5135081;27;19937;-49
2023/10/06 01:16:37;;;;;;;;;;;14.50;99.90;;;;;;5134978;27;19915;-47
2023/10/06 01:19:15;;;;;;;;;;;14.50;99.90;;;;;;5135189;27;19908;-47
2023/10/06 01:21:47;;;;;;;;;;;14.50;99.90;;;;;;5135006;27;19960;-48
2023/10/06 01:24:24;;;;;;;;;;;14.50;99.90;;;;;;5135045;27;19930;-47
2023/10/06 01:26:51;;;;;;;;;;;14.50;99.90;;;;;;5134466;27;19915;-48
2023/10/06 01:29:17;;;;;;;;;;;14.50;99.90;;;;;;5114648;28;19911;-46
2023/10/06 01:31:43;;;;;;;;;;;14.50;99.90;;;;;;5114192;28;19961;-47
2023/10/06 01:34:11;;;;;;;;;;;14.50;99.90;;;;;;5114220;28;19908;-46
2023/10/06 01:36:39;;;;;;;;;;;14.50;99.90;;;;;;5113764;28;20000;-46
2023/10/06 01:39:15;;;;;;;;;;;14.40;99.90;;;;;;5114004;28;19908;-47
2023/10/06 01:41:41;;;;;;;;;;;14.40;99.90;;;;;;5114017;28;19954;-47
2023/10/06 01:44:12;;;;;;;;;;;14.40;99.90;;;;;;5113806;28;19947;-48
2023/10/06 01:46:38;;;;;;;;;;;14.40;99.90;;;;;;5113970;28;19951;-48
2023/10/06 01:49:04;;;;;;;;;;;14.40;99.90;;;;;;5114096;28;19907;-46
2023/10/06 01:51:38;;;;;;;;;;;14.40;99.90;;;;;;5113842;28;19908;-46
2023/10/06 01:54:12;;;;;;;;;;;14.50;99.90;;;;;;5113932;28;19908;-47
2023/10/06 01:56:42;;;;;;;;;;;14.40;99.90;;;;;;5128000;27;19926;-46
2023/10/06 01:59:09;;;;;;;;;;;14.40;99.90;;;;;;5134246;27;19908;-46
2023/10/06 02:01:34;;;;;;;;;;;14.40;99.90;;;;;;5134331;27;19953;-48
2023/10/06 02:04:00;;;;;;;;;;;14.40;99.90;;;;;;5133840;27;19911;-48
2023/10/06 02:06:26;;;;;;;;;;;14.40;99.90;;;;;;5133780;27;19912;-47
2023/10/06 02:08:52;;;;;;;;;;;14.40;99.90;;;;;;5134208;27;19919;-47
2023/10/06 02:11:21;;;;;;;;;;;14.40;99.90;;;;;;5134169;27;19915;-46
2023/10/06 02:13:47;;;;;;;;;;;14.30;99.90;;;;;;5132168;27;20387;-48
2023/10/06 02:16:12;;;;;;;;;;;14.30;99.90;;;;;;5134040;27;20010;-47
2023/10/06 02:18:39;;;;;;;;;;;14.30;99.90;;;;;;5133954;27;19967;-47
2023/10/06 02:21:15;;;;;;;;;;;14.30;99.90;;;;;;5134092;27;19908;-47
2023/10/06 02:23:41;;;;;;;;;;;14.40;99.90;;;;;;5113503;28;20319;-48
2023/10/06 02:26:09;;;;;;;;;;;14.30;99.90;;;;;;5113460;28;19999;-45
2023/10/06 02:28:36;;;;;;;;;;;14.30;99.90;;;;;;5113333;28;20001;-45
2023/10/06 02:31:05;;;;;;;;;;;14.40;99.90;;;;;;5113286;28;19908;-45
2023/10/06 02:33:36;;;;;;;;;;;14.40;99.90;;;;;;5113450;28;19955;-49
2023/10/06 02:36:03;;;;;;;;;;;14.40;99.90;;;;;;5112903;28;20007;-47
2023/10/06 02:38:41;;;;;;;;;;;14.40;99.90;;;;;;5113123;28;20358;-46
2023/10/06 02:41:07;;;;;;;;;;;14.30;99.90;;;;;;5114932;28;19945;-47
2023/10/06 02:43:34;;;;;;;;;;;14.30;99.90;;;;;;5112502;28;20002;-45
2023/10/06 02:46:05;;;;;;;;;;;14.30;99.90;;;;;;5118179;28;19940;-46
2023/10/06 02:48:33;;;;;;;;;;;14.30;99.90;;;;;;5123768;28;19915;-46
2023/10/06 02:51:01;;;;;;;;;;;14.30;99.90;;;;;;5113200;28;19908;-46
2023/10/06 02:53:29;;;;;;;;;;;14.30;99.90;;;;;;5113185;28;19919;-45
2023/10/06 02:56:05;;;;;;;;;;;14.40;99.90;;;;;;5121578;28;20394;-46
2023/10/06 02:58:33;;;;;;;;;;;14.40;99.90;;;;;;5133627;28;19908;-46
2023/10/06 03:00:58;;;;;;;;;;;14.40;99.90;;;;;;5133675;28;19908;-49
2023/10/06 03:03:27;;;;;;;;;;;14.40;99.90;;;;;;5133554;28;19914;-47
2023/10/06 03:05:56;;;;;;;;;;;14.40;99.90;;;;;;5133513;28;19908;-48
2023/10/06 03:08:25;;;;;;;;;;;14.40;99.90;;;;;;5113531;28;20354;-49
2023/10/06 03:10:50;;;;;;;;;;;14.40;99.90;;;;;;5112771;28;20004;-47
2023/10/06 03:13:17;;;;;;;;;;;14.30;99.90;;;;;;5113016;28;19974;-47
2023/10/06 03:15:45;;;;;;;;;;;14.30;99.90;;;;;;5133309;28;19923;-50
2023/10/06 03:18:15;;;;;;;;;;;14.30;99.90;;;;;;5134497;27;20381;-45
2023/10/06 03:20:47;;;;;;;;;;;14.30;99.90;;;;;;5137385;27;19907;-48
2023/10/06 03:23:25;;;;;;;;;;;14.30;99.90;;;;;;5122667;27;20328;-49
2023/10/06 03:25:54;;;;;;;;;;;14.20;99.90;;;;;;5116726;28;20355;-47
2023/10/06 03:28:20;;;;;;;;;;;14.20;99.90;;;;;;5116687;28;20367;-46
2023/10/06 03:30:49;;;;;;;;;;;14.20;99.90;;;;;;5116673;28;19944;-46
2023/10/06 03:33:17;;;;;;;;;;;14.10;99.90;;;;;;5116579;28;20002;-48
2023/10/06 03:35:48;;;;;;;;;;;14.10;99.90;;;;;;5116176;28;20166;-47
2023/10/06 03:41:31;;;;;;;;;;;14.00;99.90;;;;;;5116326;28;19911;-48
2023/10/06 03:43:36;;;;;;;;;;;14.00;99.90;;;;;;5102610;27;20346;-48
2023/10/06 03:46:02;;;;;;;;;;;14.10;99.90;;;;;;5136957;27;19908;-48
2023/10/06 03:48:29;;;;;;;;;;;14.00;99.90;;;;;;5136672;27;19911;-47
2023/10/06 03:50:55;;;;;;;;;;;14.00;99.90;;;;;;5136936;27;19919;-47
2023/10/06 03:53:21;;;;;;;;;;;14.10;99.90;;;;;;5136787;27;20014;-47
2023/10/06 03:55:47;;;;;;;;;;;14.10;99.90;;;;;;5136537;27;20417;-48
2023/10/06 03:58:17;;;;;;;;;;;14.00;99.90;;;;;;5136633;27;19908;-45
2023/10/06 04:00:52;;;;;;;;;;;14.00;99.90;;;;;;5136525;27;20002;-46
2023/10/06 04:03:18;;;;;;;;;;;14.00;99.90;;;;;;5136524;27;20250;-47
2023/10/06 04:05:44;;;;;;;;;;;14.00;99.90;;;;;;5136516;27;19954;-46
2023/10/06 04:08:16;;;;;;;;;;;14.00;99.90;;;;;;5136606;27;19907;-48
2023/10/06 04:10:45;;;;;;;;;;;14.00;99.90;;;;;;5136467;27;19907;-49
2023/10/06 04:13:11;;;;;;;;;;;14.00;99.90;;;;;;5136317;27;20319;-49
2023/10/06 04:15:38;;;;;;;;;;;13.90;99.90;;;;;;5135769;27;19919;-47
2023/10/06 04:18:14;;;;;;;;;;;14.00;99.90;;;;;;5136416;27;19968;-46
2023/10/06 04:20:40;;;;;;;;;;;13.90;99.90;;;;;;5135925;27;19912;-49
2023/10/06 04:23:12;;;;;;;;;;;13.90;99.90;;;;;;5136264;27;19911;-48
2023/10/06 04:25:38;;;;;;;;;;;14.00;99.90;;;;;;5136152;27;19907;-46
2023/10/06 04:28:08;;;;;;;;;;;14.00;99.90;;;;;;5136299;27;19915;-49
2023/10/06 04:30:35;;;;;;;;;;;13.90;99.90;;;;;;5135723;27;19908;-48
2023/10/06 04:33:01;;;;;;;;;;;14.00;99.90;;;;;;5136111;27;19908;-51
2023/10/06 04:35:26;;;;;;;;;;;13.90;99.90;;;;;;5135702;27;19920;-48
2023/10/06 04:37:52;;;;;;;;;;;13.90;99.90;;;;;;5135943;27;19959;-46
2023/10/06 04:40:19;;;;;;;;;;;14.00;99.90;;;;;;5136018;27;19915;-51
2023/10/06 04:42:45;;;;;;;;;;;13.90;99.90;;;;;;5135679;27;20369;-47
2023/10/06 04:45:12;;;;;;;;;;;13.90;99.90;;;;;;5120300;27;19912;-46
2023/10/06 04:47:41;;;;;;;;;;;13.90;99.90;;;;;;5115027;28;19912;-47
2023/10/06 04:50:10;;;;;;;;;;;13.90;99.90;;;;;;5115157;28;19911;-47
2023/10/06 04:52:39;;;;;;;;;;;13.80;99.90;;;;;;5119718;27;20026;-47
2023/10/06 04:55:05;;;;;;;;;;;13.80;99.90;;;;;;5127618;27;19919;-50
2023/10/06 04:57:31;;;;;;;;;;;13.70;99.90;;;;;;5123185;27;19924;-46
2023/10/06 04:59:58;;;;;;;;;;;13.70;99.90;;;;;;5122173;27;19918;-48
2023/10/06 05:02:24;;;;;;;;;;;13.70;99.90;;;;;;5125669;27;19939;-49
2023/10/06 05:04:51;;;;;;;;;;;13.70;99.90;;;;;;5123935;27;19939;-49
2023/10/06 05:07:16;;;;;;;;;;;13.70;99.90;;;;;;5123966;27;20327;-48
2023/10/06 05:09:42;;;;;;;;;;;13.70;99.90;;;;;;5125345;27;19908;-48
2023/10/06 05:12:09;;;;;;;;;;;13.70;99.90;;;;;;5123608;27;19907;-46
2023/10/06 05:14:35;;;;;;;;;;;13.60;99.90;;;;;;5124120;27;19913;-46
2023/10/06 05:17:01;;;;;;;;;;;13.70;99.90;;;;;;5124697;27;19975;-46
2023/10/06 05:19:27;;;;;;;;;;;13.60;99.90;;;;;;5122621;27;19918;-49
2023/10/06 05:21:53;;;;;;;;;;;13.60;99.90;;;;;;5125163;27;19911;-47
2023/10/06 05:24:18;;;;;;;;;;;13.60;99.90;;;;;;5123153;27;19934;-48
2023/10/06 05:26:44;;;;;;;;;;;13.60;99.90;;;;;;5124621;27;19950;-49
2023/10/06 05:29:11;;;;;;;;;;;13.60;99.90;;;;;;5120914;27;19911;-49
2023/10/06 05:31:37;;;;;;;;;;;13.70;99.90;;;;;;5123905;27;19923;-48
2023/10/06 05:34:07;;;;;;;;;;;13.70;99.90;;;;;;5118161;27;19911;-48
2023/10/06 05:36:32;;;;;;;;;;;13.60;99.90;;;;;;5123148;27;19927;-46
2023/10/06 05:38:59;;;;;;;;;;;13.70;99.90;;;;;;5116989;27;19908;-50
2023/10/06 05:41:34;;;;;;;;;;;13.70;99.90;;;;;;5117194;27;19911;-47
2023/10/06 05:43:59;;;;;;;;;;;13.70;99.90;;;;;;5129082;27;19945;-45
2023/10/06 05:46:25;;;;;;;;;;;13.60;99.90;;;;;;5122842;27;20323;-45
2023/10/06 05:48:51;;;;;;;;;;;13.70;99.90;;;;;;5114321;27;19955;-46
2023/10/06 05:51:21;;;;;;;;;;;13.70;99.90;;;;;;5120801;27;19915;-49
2023/10/06 05:53:48;;;;;;;;;;;13.70;99.90;;;;;;5128681;27;20273;-48
2023/10/06 05:56:15;;;;;;;;;;;13.70;99.90;;;;;;5122331;27;19915;-47
2023/10/06 05:58:43;;;;;;;;;;;13.70;99.90;;;;;;5134193;27;20299;-48
2023/10/06 06:01:18;;;;;;;;;;;13.70;99.90;;;;;;5115016;27;20199;-46
2023/10/06 06:03:46;;;;;;;;;;;13.70;99.90;;;;;;5113707;28;19922;-47
2023/10/06 06:06:14;;;;;;;;;;;13.70;99.90;;;;;;5113627;28;20286;-46
2023/10/06 06:08:43;;;;;;;;;;;13.80;99.90;;;;;;5121602;27;19919;-48
2023/10/06 06:11:09;;;;;;;;;;;13.80;99.90;;;;;;5134265;27;19915;-47
2023/10/06 06:13:36;;;;;;;;;;;13.80;99.90;;;;;;5133804;27;19907;-47
2023/10/06 06:16:02;;;;;;;;;;;13.90;99.90;;;;;;5125659;27;20010;-48
2023/10/06 06:18:28;;;;;;;;;;;13.80;99.90;;;;;;5125364;27;19912;-46
2023/10/06 06:20:53;;;;;;;;;;;13.90;99.90;;;;;;5129011;27;19915;-48
2023/10/06 06:23:20;;;;;;;;;;;13.90;99.90;;;;;;5126922;27;19930;-47
2023/10/06 06:25:45;;;;;;;;;;;13.90;99.90;;;;;;5113310;28;20056;-48
2023/10/06 06:28:12;;;;;;;;;;;14.00;99.90;;;;;;5113532;28;19953;-50
2023/10/06 06:30:39;;;;;;;;;;;14.00;99.90;;;;;;5118572;28;19918;-46
2023/10/06 06:33:05;;;;;;;;;;;14.00;99.90;;;;;;5133726;27;20346;-46
2023/10/06 06:35:34;;;;;;;;;;;14.10;99.90;;;;;;5131399;27;19920;-50
2023/10/06 06:38:01;;;;;;;;;;;14.10;99.90;;;;;;5113289;28;20294;-47
2023/10/06 06:40:28;;;;;;;;;;;14.20;99.90;;;;;;5115616;28;19916;-49
2023/10/06 06:42:55;;;;;;;;;;;14.20;99.90;;;;;;5120942;28;19965;-49
2023/10/06 06:45:21;;;;;;;;;;;14.20;99.90;;;;;;5120440;28;19918;-45
2023/10/06 06:47:47;;;;;;;;;;;14.20;99.90;;;;;;5124175;28;19908;-45
2023/10/06 06:50:13;;;;;;;;;;;14.30;99.90;;;;;;5114076;28;19918;-48
2023/10/06 06:52:39;;;;;;;;;;;14.30;99.90;;;;;;5114950;28;20007;-46
2023/10/06 06:55:12;;;;;;;;;;;14.40;99.90;;;;;;5130756;27;20344;-50
2023/10/06 06:57:44;;;;;;;;;;;14.40;99.90;;;;;;5137789;27;19916;-45
2023/10/06 07:00:16;;;;;;;;;;;14.40;99.90;;;;;;5137743;27;20350;-46
2023/10/06 07:02:46;;;;;;;;;;;14.40;99.90;;;;;;5137657;27;20336;-45
2023/10/06 07:05:15;;;;;;;;;;;14.40;99.90;;;;;;5137818;27;20310;-47
2023/10/06 07:07:42;;;;;;;;;;;14.50;99.90;;;;;;5125112;27;19912;-48
2023/10/06 07:10:11;;;;;;;;;;;14.50;99.90;;;;;;5128252;27;20008;-48
2023/10/06 07:12:37;;;;;;;;;;;14.50;99.90;;;;;;5121036;27;19962;-48
2023/10/06 07:15:03;;;;;;;;;;;14.50;99.90;;;;;;5127555;27;19958;-46
2023/10/06 07:17:28;;;;;;;;;;;14.50;99.90;;;;;;5135488;27;19959;-46
2023/10/06 07:19:54;;;;;;;;;;;14.50;99.90;;;;;;5135197;27;19990;-51
2023/10/06 07:22:22;;;;;;;;;;;14.50;99.90;;;;;;5136532;27;19907;-47
2023/10/06 07:24:50;;;;;;;;;;;14.50;99.90;;;;;;5136251;27;19947;-46
2023/10/06 07:27:15;;;;;;;;;;;14.50;99.90;;;;;;5137281;27;19907;-49
2023/10/06 07:29:41;;;;;;;;;;;14.60;99.90;;;;;;5137227;27;20282;-49
2023/10/06 07:32:06;;;;;;;;;;;14.60;99.90;;;;;;5137343;27;20369;-50
2023/10/06 07:34:32;;;;;;;;;;;14.60;99.90;;;;;;5137244;27;19908;-47
2023/10/06 07:36:58;;;;;;;;;;;14.60;99.90;;;;;;5136820;27;20354;-46
2023/10/06 07:39:23;;;;;;;;;;;14.60;99.90;;;;;;5137168;27;19907;-46
2023/10/06 07:41:49;;;;;;;;;;;14.70;99.90;;;;;;5137238;27;20339;-45
2023/10/06 07:44:14;;;;;;;;;;;14.70;99.90;;;;;;5133913;27;19959;-46
2023/10/06 07:46:41;;;;;;;;;;;14.70;99.90;;;;;;5116298;28;19908;-47
2023/10/06 07:49:07;;;;;;;;;;;14.70;99.90;;;;;;5127523;27;19960;-47
2023/10/06 07:51:33;;;;;;;;;;;14.80;99.90;;;;;;5123905;27;19916;-48
2023/10/06 07:54:02;;;;;;;;;;;14.80;99.90;;;;;;5116187;28;20270;-47
2023/10/06 07:56:27;;;;;;;;;;;14.90;99.90;;;;;;5116147;28;19978;-48
2023/10/06 07:58:53;;;;;;;;;;;14.90;99.90;;;;;;5116134;28;20324;-48
2023/10/06 08:01:19;;;;;;;;;;;14.90;99.90;;;;;;5116180;28;19998;-48
2023/10/06 08:03:45;;;;;;;;;;;15.00;99.90;;;;;;5115313;28;19946;-49
2023/10/06 08:06:11;;;;;;;;;;;15.00;99.90;;;;;;5116089;28;19908;-47
2023/10/06 08:08:37;;;;;;;;;;;15.10;99.90;;;;;;5115925;28;19912;-47
2023/10/06 08:11:06;;;;;;;;;;;15.10;99.90;;;;;;5115917;28;20354;-45
2023/10/06 08:13:36;;;;;;;;;;;15.10;99.90;;;;;;5115882;28;19908;-48
2023/10/06 08:16:02;;;;;;;;;;;15.10;99.90;;;;;;5115730;28;20381;-49
2023/10/06 08:18:30;;;;;;;;;;;15.20;99.90;;;;;;5115825;28;19907;-46
2023/10/06 08:20:56;;;;;;;;;;;15.30;99.90;;;;;;5116645;27;20350;-47
2023/10/06 08:23:22;;;;;;;;;;;15.30;99.90;;;;;;5115619;28;20271;-48
2023/10/06 08:25:49;;;;;;;;;;;15.30;99.90;;;;;;5115523;28;19919;-51
2023/10/06 08:28:14;;;;;;;;;;;15.40;99.90;;;;;;5115794;28;20058;-48
2023/10/06 08:30:40;;;;;;;;;;;15.50;99.90;;;;;;5115588;28;19908;-46
2023/10/06 08:33:09;;;;;;;;;;;15.50;99.90;;;;;;5115614;28;19908;-47
2023/10/06 08:35:35;;;;;;;;;;;15.50;99.90;;;;;;5115093;28;19919;-47
2023/10/06 08:38:01;;;;;;;;;;;15.60;99.90;;;;;;5115325;28;19957;-48
2023/10/06 08:40:29;;;;;;;;;;;15.70;99.90;;;;;;5117393;27;20289;-46
2023/10/06 08:42:56;;;;;;;;;;;15.60;99.90;;;;;;5135989;27;20148;-51
2023/10/06 08:45:22;;;;;;;;;;;15.70;99.90;;;;;;5135891;27;19911;-47
2023/10/06 08:47:58;;;;;;;;;;;15.80;99.90;;;;;;5135736;27;19980;-46
2023/10/06 08:50:25;;;;;;;;;;;15.90;99.90;;;;;;5135743;27;19908;-51
2023/10/06 08:52:51;;;;;;;;;;;15.90;99.90;;;;;;5135584;27;19911;-46
2023/10/06 08:55:20;;;;;;;;;;;15.90;99.90;;;;;;5135708;27;19912;-45
2023/10/06 08:57:46;;;;;;;;;;;16.00;99.90;;;;;;5135494;27;19959;-48
2023/10/06 09:00:15;;;;;;;;;;;16.00;99.90;;;;;;5133071;27;19908;-48
2023/10/06 09:02:41;;;;;;;;;;;16.00;99.90;;;;;;5114923;28;20263;-47
2023/10/06 09:05:10;;;;;;;;;;;16.00;99.90;;;;;;5114736;28;19912;-45
2023/10/06 09:07:35;;;;;;;;;;;16.00;99.90;;;;;;5114769;28;19908;-47
2023/10/06 09:10:17;;;;;;;;;;;16.10;99.90;;;;;;5114839;27;19926;-50
2023/10/06 09:12:43;;;;;;;;;;;16.10;99.90;;;;;;5114646;28;20266;-46
2023/10/06 09:15:15;;;;;;;;;;;16.10;99.90;;;;;;5114008;28;20366;-47
2023/10/06 09:17:40;;;;;;;;;;;16.10;99.90;;;;;;5114224;28;19964;-46
2023/10/06 09:20:07;;;;;;;;;;;16.10;99.90;;;;;;5114482;28;19998;-48
2023/10/06 09:22:46;;;;;;;;;;;16.10;99.90;;;;;;5114513;28;19915;-46
2023/10/06 09:25:11;;;;;;;;;;;16.10;99.90;;;;;;5114553;28;19908;-50
2023/10/06 09:27:37;;;;;;;;;;;16.20;99.90;;;;;;5114361;28;19919;-49
2023/10/06 09:30:11;;;;;;;;;;;16.30;99.90;;;;;;5114357;28;19915;-49
2023/10/06 09:32:37;;;;;;;;;;;16.30;99.90;;;;;;5114266;28;20373;-44
2023/10/06 09:35:19;;;;;;;;;;;16.40;99.90;;;;;;5113876;28;19908;-48
2023/10/06 09:37:44;;;;;;;;;;;16.40;99.90;;;;;;5114131;28;20064;-45
2023/10/06 09:40:18;;;;;;;;;;;16.50;99.90;;;;;;5114276;28;19960;-47
2023/10/06 09:42:46;;;;;;;;;;;16.60;99.90;;;;;;5114432;28;19947;-47
2023/10/06 09:45:15;;;;;;;;;;;16.60;99.90;;;;;;5114167;28;19908;-46
2023/10/06 09:47:48;;;;;;;;;;;16.70;99.90;;;;;;5114006;28;19907;-49
2023/10/06 09:50:15;;;;;;;;;;;16.80;99.90;;;;;;5117910;27;20378;-49
2023/10/06 09:52:42;;;;;;;;;;;16.80;99.90;;;;;;5134498;27;20038;-45
2023/10/06 09:55:08;;;;;;;;;;;16.80;99.90;;;;;;5134377;27;19914;-49
2023/10/06 09:57:34;;;;;;;;;;;16.80;99.90;;;;;;5134368;27;19915;-49
2023/10/06 10:00:02;;;;;;;;;;;16.70;99.90;;;;;;5133968;27;19908;-45
2023/10/06 10:02:29;;;;;;;;;;;16.70;99.90;;;;;;5134329;27;20476;-46
2023/10/06 10:04:59;;;;;;;;;;;16.80;99.90;;;;;;5134448;27;19908;-45
2023/10/06 10:07:27;;;;;;;;;;;16.80;99.90;;;;;;5134365;27;19911;-45
2023/10/06 10:09:52;;;;;;;;;;;16.70;99.90;;;;;;5134137;27;19994;-45
2023/10/06 10:12:18;;;;;;;;;;;16.80;99.90;;;;;;5134247;27;19942;-45
2023/10/06 10:15:12;;;;;;;;;;;16.80;99.90;;;;;;5134192;27;19951;-47
2023/10/06 10:17:37;;;;;;;;;;;16.80;99.90;;;;;;5089199;27;19923;-46
2023/10/06 10:20:07;;;;;;;;;;;16.90;99.90;;;;;;5132950;27;19915;-46
2023/10/06 10:22:33;;;;;;;;;;;16.90;99.90;;;;;;5113279;27;19912;-44
2023/10/06 10:25:04;;;;;;;;;;;16.90;99.90;;;;;;5118881;27;20328;-48
2023/10/06 10:27:30;;;;;;;;;;;17.00;99.90;;;;;;5126909;27;20289;-46
2023/10/06 10:29:55;;;;;;;;;;;17.00;99.90;;;;;;5123178;27;19912;-44
2023/10/06 10:32:24;;;;;;;;;;;17.00;99.90;;;;;;5130420;27;19954;-49
2023/10/06 10:35:09;;;;;;;;;;;17.10;99.90;;;;;;5123657;28;20002;-48
2023/10/06 10:37:55;;;;;;;;;;;17.20;99.90;;;;;;5112862;28;20356;-44
2023/10/06 10:40:26;;;;;;;;;;;17.30;99.90;;;;;;5123882;28;20415;-45
2023/10/06 10:42:59;;;;;;;;;;;17.60;99.90;;;;;;5124733;28;19926;-45
2023/10/06 10:45:34;;;;;;;;;;;17.70;99.90;;;;;;5120568;28;20011;-45
2023/10/06 10:48:06;;;;;;;;;;;17.90;99.90;;;;;;5128181;28;19912;-46
2023/10/06 10:50:51;;;;;;;;;;;18.10;99.90;;;;;;5115164;28;20247;-46
2023/10/06 10:53:17;;;;;;;;;;;18.10;99.90;;;;;;5124364;28;20282;-47
2023/10/06 10:55:43;;;;;;;;;;;18.10;99.90;;;;;;5113089;28;19911;-47
2023/10/06 10:58:09;;;;;;;;;;;18.10;99.90;;;;;;5121372;28;20011;-44
2023/10/06 11:00:34;;;;;;;;;;;18.10;99.90;;;;;;5133554;28;19913;-48
2023/10/06 11:03:01;;;;;;;;;;;18.00;99.90;;;;;;5122777;28;19912;-45
2023/10/06 11:05:27;;;;;;;;;;;18.00;99.90;;;;;;5124806;28;20350;-45
2023/10/06 11:08:00;;;;;;;;;;;17.90;99.90;;;;;;5133379;28;19908;-45
2023/10/06 11:10:28;;;;;;;;;;;17.90;99.90;;;;;;5133543;28;19908;-46
2023/10/06 11:13:13;;;;;;;;;;;17.90;99.90;;;;;;5113137;28;19912;-45
2023/10/06 11:15:38;;;;;;;;;;;17.90;99.90;;;;;;5112388;28;19911;-45
2023/10/06 11:18:06;;;;;;;;;;;17.90;99.90;;;;;;5130738;28;19937;-47
2023/10/06 11:20:39;;;;;;;;;;;17.90;99.90;;;;;;5133410;28;19907;-45
2023/10/06 11:23:04;;;;;;;;;;;18.00;99.90;;;;;;5114196;28;19966;-45
2023/10/06 11:25:32;;;;;;;;;;;17.90;99.90;;;;;;5112519;28;19935;-44
2023/10/06 11:28:02;;;;;;;;;;;18.00;99.90;;;;;;5114669;28;19961;-46
2023/10/06 11:30:28;;;;;;;;;;;18.00;99.90;;;;;;5132481;28;19912;-45
2023/10/06 11:32:54;;;;;;;;;;;18.00;99.90;;;;;;5131357;28;19920;-44
2023/10/06 11:35:22;;;;;;;;;;;18.00;99.90;;;;;;5131303;28;20277;-45
2023/10/06 11:37:48;;;;;;;;;;;18.00;99.90;;;;;;5125243;27;19923;-44
2023/10/06 11:40:14;;;;;;;;;;;18.00;99.90;;;;;;5135331;27;19918;-47
2023/10/06 11:42:41;;;;;;;;;;;18.10;99.90;;;;;;5119957;27;19919;-46
2023/10/06 11:45:23;;;;;;;;;;;18.10;99.90;;;;;;5129021;27;19957;-45
2023/10/06 11:47:51;;;;;;;;;;;18.10;99.90;;;;;;5117379;27;19912;-45
2023/10/06 11:50:28;;;;;;;;;;;18.20;99.90;;;;;;5115682;28;20443;-46
2023/10/06 11:52:53;;;;;;;;;;;18.20;99.90;;;;;;5120812;27;19911;-45
2023/10/06 11:55:22;;;;;;;;;;;18.20;99.90;;;;;;5136780;27;19914;-46
2023/10/06 11:57:51;;;;;;;;;;;18.30;99.90;;;;;;5136464;27;19980;-46
2023/10/06 12:00:17;;;;;;;;;;;18.40;99.90;;;;;;5136652;27;19908;-46
2023/10/06 12:02:49;;;;;;;;;;;18.50;99.90;;;;;;5131106;27;19912;-44
2023/10/06 12:05:16;;;;;;;;;;;18.50;99.90;;;;;;5120782;27;19936;-47
2023/10/06 12:07:42;;;;;;;;;;;18.60;99.90;;;;;;5115898;28;19958;-44
2023/10/06 12:10:08;;;;;;;;;;;18.60;99.90;;;;;;5115899;28;19911;-45
2023/10/06 12:12:34;;;;;;;;;;;18.60;99.90;;;;;;5115475;28;19962;-44
2023/10/06 12:14:59;;;;;;;;;;;18.70;99.90;;;;;;5115934;28;19960;-43
2023/10/06 12:17:27;;;;;;;;;;;18.70;99.90;;;;;;5119774;27;19919;-46
2023/10/06 12:19:52;;;;;;;;;;;18.80;99.90;;;;;;5135256;27;20290;-44
2023/10/06 12:22:18;;;;;;;;;;;19.00;99.90;;;;;;5135709;27;19956;-44
2023/10/06 12:24:45;;;;;;;;;;;19.10;99.90;;;;;;5135938;27;19907;-44
2023/10/06 12:27:11;;;;;;;;;;;19.10;99.90;;;;;;5134922;27;20006;-45
2023/10/06 12:29:36;;;;;;;;;;;19.10;99.90;;;;;;5122479;27;20002;-44
2023/10/06 12:32:02;;;;;;;;;;;19.10;99.90;;;;;;5125423;27;19919;-44
2023/10/06 12:34:27;;;;;;;;;;;19.00;99.90;;;;;;5117984;27;19912;-45
2023/10/06 12:37:01;;;;;;;;;;;19.00;99.90;;;;;;5115124;28;20427;-45
2023/10/06 12:39:34;;;;;;;;;;;19.10;99.90;;;;;;5115342;28;19937;-43
2023/10/06 12:42:00;;;;;;;;;;;19.20;99.90;;;;;;5114888;28;20007;-45
2023/10/06 12:44:27;;;;;;;;;;;19.20;99.90;;;;;;5131563;27;19962;-46
2023/10/06 12:46:54;;;;;;;;;;;19.30;99.90;;;;;;5134988;27;20326;-47
2023/10/06 12:49:21;;;;;;;;;;;19.40;99.90;;;;;;5114404;28;19951;-49
2023/10/06 12:51:46;;;;;;;;;;;19.30;99.90;;;;;;5113697;28;19912;-44
2023/10/06 12:54:14;;;;;;;;;;;19.30;99.90;;;;;;5114543;28;19912;-49
2023/10/06 12:56:44;;;;;;;;;;;19.40;99.90;;;;;;5114906;28;19920;-47
2023/10/06 12:59:12;;;;;;;;;;;19.60;99.90;;;;;;5114665;28;19919;-45
2023/10/06 13:01:38;;;;;;;;;;;19.80;99.90;;;;;;5115053;28;20410;-48
2023/10/06 13:04:05;;;;;;;;;;;19.80;99.90;;;;;;5115117;27;19916;-46
2023/10/06 13:06:31;;;;;;;;;;;19.80;99.90;;;;;;5115407;28;20011;-48
2023/10/06 13:09:01;;;;;;;;;;;19.80;99.90;;;;;;5115365;27;20007;-44
2023/10/06 13:11:27;;;;;;;;;;;19.70;99.90;;;;;;5114967;28;19961;-45
2023/10/06 13:13:53;;;;;;;;;;;19.70;99.90;;;;;;5131572;27;20384;-44
2023/10/06 13:16:18;;;;;;;;;;;19.60;99.90;;;;;;5135339;27;19916;-50
2023/10/06 13:18:44;;;;;;;;;;;19.50;99.90;;;;;;5131137;27;19923;-50
2023/10/06 13:21:10;;;;;;;;;;;19.40;99.90;;;;;;5134474;27;19973;-45
2023/10/06 13:23:35;;;;;;;;;;;19.30;99.90;;;;;;5122616;27;19927;-47
2023/10/06 13:26:02;;;;;;;;;;;19.30;99.90;;;;;;5114207;28;19908;-44
2023/10/06 13:28:29;;;;;;;;;;;19.20;99.90;;;;;;5114145;28;19974;-49
2023/10/06 13:30:54;;;;;;;;;;;19.20;99.90;;;;;;5118188;27;19915;-48
2023/10/06 13:33:20;;;;;;;;;;;19.20;99.90;;;;;;5119761;27;19912;-48
2023/10/06 13:35:47;;;;;;;;;;;19.20;99.90;;;;;;5116210;27;19973;-46
2023/10/06 13:38:13;;;;;;;;;;;19.30;99.90;;;;;;5123588;27;19962;-48
2023/10/06 13:40:40;;;;;;;;;;;19.30;99.90;;;;;;5114589;27;20374;-44
2023/10/06 13:43:10;;;;;;;;;;;19.30;99.90;;;;;;5116668;27;20000;-43
2023/10/06 13:45:36;;;;;;;;;;;19.30;99.90;;;;;;5126675;27;19907;-44
2023/10/06 13:48:03;;;;;;;;;;;19.40;99.90;;;;;;5129203;27;19934;-46
2023/10/06 13:50:30;;;;;;;;;;;19.50;99.90;;;;;;5127772;27;19911;-47
2023/10/06 13:52:55;;;;;;;;;;;19.60;99.90;;;;;;5114214;27;20322;-44
2023/10/06 13:55:22;;;;;;;;;;;20.00;99.90;;;;;;5113162;28;20431;-49
2023/10/06 13:57:51;;;;;;;;;;;20.20;99.90;;;;;;5119618;27;19968;-45
2023/10/06 14:00:30;;;;;;;;;;;20.30;99.90;;;;;;5119978;27;19996;-44
2023/10/06 14:03:03;;;;;;;;;;;20.20;99.90;;;;;;5130910;27;19908;-44
2023/10/06 14:05:32;;;;;;;;;;;20.20;99.90;;;;;;5132751;27;20356;-46
2023/10/06 14:08:02;;;;;;;;;;;20.20;99.90;;;;;;5134218;27;19965;-46
2023/10/06 14:10:31;;;;;;;;;;;20.10;99.90;;;;;;5134396;27;19911;-46
2023/10/06 14:13:02;;;;;;;;;;;20.20;99.90;;;;;;5134193;27;19908;-45
2023/10/06 14:15:36;;;;;;;;;;;20.20;99.90;;;;;;5134176;27;19908;-44
2023/10/06 14:18:02;;;;;;;;;;;20.20;99.90;;;;;;5134105;27;19923;-45
2023/10/06 14:20:31;;;;;;;;;;;20.10;99.90;;;;;;5134125;27;19911;-46
2023/10/06 14:22:56;;;;;;;;;;;20.00;99.90;;;;;;5134079;27;19915;-48
2023/10/06 14:25:29;;;;;;;;;;;19.90;99.90;;;;;;5134079;27;19907;-45
2023/10/06 14:27:55;;;;;;;;;;;19.90;99.90;;;;;;5133938;27;19968;-44
2023/10/06 14:30:28;;;;;;;;;;;19.80;99.90;;;;;;5116641;27;20018;-48